Terminal Aerodrome Forecast
Issued by NWS Sioux Falls, SD

Current Version | Previous Version | Text Only | Print | Product List | Glossary On
Versions: 1 2 3 4 5 6 7 8 9 10 11 12 13 14
000
FTUS43 KFSD 230522
TAFHON
TAF
KHON 230522Z 2306/2406 22005KT P6SM SKC
     FM231000 17004KT P6SM SKC
     FM231600 18009KT P6SM SKC=

USA.gov is the U.S. government's official web portal to all federal, state and local government web resources and services.